sensor_id;sensor_type;location;lat;lon;timestamp;P1;durP1;ratioP1;P2;durP2;ratioP2
78382;SDS011;67668;52.294;4.692;2023-02-19T00:04:02;19.58;;;4.38;;
78382;SDS011;67668;52.294;4.692;2023-02-19T00:06:30;15.07;;;3.35;;
78382;SDS011;67668;52.294;4.692;2023-02-19T00:08:57;16.35;;;4.05;;
78382;SDS011;67668;52.294;4.692;2023-02-19T00:11:23;27.25;;;5.63;;
78382;SDS011;67668;52.294;4.692;2023-02-19T00:13:51;19.75;;;4.18;;
78382;SDS011;67668;52.294;4.692;2023-02-19T00:16:26;17.17;;;4.07;;
78382;SDS011;67668;52.294;4.692;2023-02-19T00:18:53;18.30;;;3.63;;
78382;SDS011;67668;52.294;4.692;2023-02-19T00:21:20;12.00;;;4.00;;
78382;SDS011;67668;52.294;4.692;2023-02-19T00:23:54;17.55;;;4.50;;
78382;SDS011;67668;52.294;4.692;2023-02-19T00:26:21;22.83;;;4.03;;
78382;SDS011;67668;52.294;4.692;2023-02-19T00:31:15;16.48;;;3.50;;
78382;SDS011;67668;52.294;4.692;2023-02-19T00:33:45;13.85;;;4.15;;
78382;SDS011;67668;52.294;4.692;2023-02-19T00:36:13;14.10;;;4.40;;
78382;SDS011;67668;52.294;4.692;2023-02-19T00:38:39;12.88;;;3.20;;
78382;SDS011;67668;52.294;4.692;2023-02-19T00:41:06;14.38;;;3.95;;
78382;SDS011;67668;52.294;4.692;2023-02-19T00:43:49;11.30;;;3.88;;
78382;SDS011;67668;52.294;4.692;2023-02-19T00:46:33;16.17;;;4.20;;
78382;SDS011;67668;52.294;4.692;2023-02-19T00:49:00;18.77;;;4.30;;
78382;SDS011;67668;52.294;4.692;2023-02-19T00:51:27;15.07;;;3.92;;
78382;SDS011;67668;52.294;4.692;2023-02-19T00:53:55;15.57;;;3.75;;
78382;SDS011;67668;52.294;4.692;2023-02-19T00:58:47;23.35;;;4.57;;
78382;SDS011;67668;52.294;4.692;2023-02-19T01:03:48;14.52;;;4.10;;
78382;SDS011;67668;52.294;4.692;2023-02-19T01:08:40;12.10;;;3.45;;
78382;SDS011;67668;52.294;4.692;2023-02-19T01:13:32;15.77;;;4.03;;
78382;SDS011;67668;52.294;4.692;2023-02-19T01:16:03;13.27;;;4.00;;
78382;SDS011;67668;52.294;4.692;2023-02-19T01:18:30;11.65;;;3.90;;
78382;SDS011;67668;52.294;4.692;2023-02-19T01:23:21;13.90;;;4.00;;
78382;SDS011;67668;52.294;4.692;2023-02-19T01:28:12;9.23;;;3.43;;
78382;SDS011;67668;52.294;4.692;2023-02-19T01:30:38;8.77;;;3.77;;
78382;SDS011;67668;52.294;4.692;2023-02-19T01:33:04;18.88;;;4.30;;
78382;SDS011;67668;52.294;4.692;2023-02-19T01:35:30;12.73;;;3.30;;
78382;SDS011;67668;52.294;4.692;2023-02-19T01:40:21;6.63;;;2.10;;
78382;SDS011;67668;52.294;4.692;2023-02-19T01:42:46;15.50;;;3.30;;
78382;SDS011;67668;52.294;4.692;2023-02-19T01:47:46;8.90;;;2.00;;
78382;SDS011;67668;52.294;4.692;2023-02-19T01:50:18;8.20;;;2.13;;
78382;SDS011;67668;52.294;4.692;2023-02-19T01:52:43;7.47;;;2.00;;
78382;SDS011;67668;52.294;4.692;2023-02-19T01:55:10;17.90;;;2.20;;
78382;SDS011;67668;52.294;4.692;2023-02-19T01:57:38;15.23;;;2.08;;
78382;SDS011;67668;52.294;4.692;2023-02-19T02:00:08;12.40;;;2.10;;
78382;SDS011;67668;52.294;4.692;2023-02-19T02:02:37;11.55;;;2.05;;
78382;SDS011;67668;52.294;4.692;2023-02-19T02:05:05;10.82;;;1.90;;
78382;SDS011;67668;52.294;4.692;2023-02-19T02:10:21;13.75;;;2.60;;
78382;SDS011;67668;52.294;4.692;2023-02-19T02:15:13;18.67;;;2.28;;
78382;SDS011;67668;52.294;4.692;2023-02-19T02:20:58;7.65;;;1.92;;
78382;SDS011;67668;52.294;4.692;2023-02-19T02:31:56;10.13;;;3.10;;
78382;SDS011;67668;52.294;4.692;2023-02-19T02:34:26;9.95;;;2.80;;
78382;SDS011;67668;52.294;4.692;2023-02-19T02:36:56;10.57;;;3.15;;
78382;SDS011;67668;52.294;4.692;2023-02-19T02:39:23;12.50;;;3.10;;
78382;SDS011;67668;52.294;4.692;2023-02-19T02:41:55;12.68;;;2.90;;
78382;SDS011;67668;52.294;4.692;2023-02-19T02:44:41;15.60;;;2.78;;
78382;SDS011;67668;52.294;4.692;2023-02-19T02:47:27;8.70;;;2.72;;
78382;SDS011;67668;52.294;4.692;2023-02-19T02:50:26;8.55;;;2.38;;
78382;SDS011;67668;52.294;4.692;2023-02-19T02:53:05;11.05;;;3.33;;
78382;SDS011;67668;52.294;4.692;2023-02-19T02:55:54;11.77;;;3.50;;
78382;SDS011;67668;52.294;4.692;2023-02-19T02:58:21;11.88;;;3.25;;
78382;SDS011;67668;52.294;4.692;2023-02-19T03:00:50;10.50;;;2.42;;
78382;SDS011;67668;52.294;4.692;2023-02-19T03:03:46;13.88;;;2.60;;
78382;SDS011;67668;52.294;4.692;2023-02-19T03:06:15;10.68;;;2.40;;
78382;SDS011;67668;52.294;4.692;2023-02-19T03:08:48;18.40;;;3.08;;
78382;SDS011;67668;52.294;4.692;2023-02-19T03:11:20;13.27;;;2.55;;
78382;SDS011;67668;52.294;4.692;2023-02-19T03:14:15;10.77;;;2.08;;
78382;SDS011;67668;52.294;4.692;2023-02-19T03:17:16;13.48;;;2.53;;
78382;SDS011;67668;52.294;4.692;2023-02-19T03:20:04;9.40;;;2.35;;
78382;SDS011;67668;52.294;4.692;2023-02-19T03:22:35;10.85;;;2.40;;
78382;SDS011;67668;52.294;4.692;2023-02-19T03:27:58;6.15;;;2.08;;
78382;SDS011;67668;52.294;4.692;2023-02-19T03:30:27;11.55;;;2.90;;
78382;SDS011;67668;52.294;4.692;2023-02-19T03:35:30;13.13;;;3.17;;
78382;SDS011;67668;52.294;4.692;2023-02-19T03:38:03;13.77;;;2.90;;
78382;SDS011;67668;52.294;4.692;2023-02-19T03:40:39;17.55;;;3.42;;
78382;SDS011;67668;52.294;4.692;2023-02-19T03:43:19;9.90;;;2.47;;
78382;SDS011;67668;52.294;4.692;2023-02-19T03:45:56;8.88;;;2.42;;
78382;SDS011;67668;52.294;4.692;2023-02-19T03:48:47;18.13;;;3.55;;
78382;SDS011;67668;52.294;4.692;2023-02-19T03:57:19;13.77;;;2.35;;
78382;SDS011;67668;52.294;4.692;2023-02-19T03:59:58;12.13;;;3.20;;
78382;SDS011;67668;52.294;4.692;2023-02-19T04:02:33;10.23;;;2.88;;
78382;SDS011;67668;52.294;4.692;2023-02-19T04:07:38;12.18;;;2.47;;
78382;SDS011;67668;52.294;4.692;2023-02-19T04:10:08;12.18;;;2.20;;
78382;SDS011;67668;52.294;4.692;2023-02-19T04:12:35;16.83;;;2.53;;
78382;SDS011;67668;52.294;4.692;2023-02-19T04:15:05;9.48;;;2.20;;
78382;SDS011;67668;52.294;4.692;2023-02-19T04:17:45;6.38;;;2.03;;
78382;SDS011;67668;52.294;4.692;2023-02-19T04:20:15;8.18;;;2.22;;
78382;SDS011;67668;52.294;4.692;2023-02-19T04:22:43;10.40;;;1.63;;
78382;SDS011;67668;52.294;4.692;2023-02-19T04:25:09;12.93;;;2.50;;
78382;SDS011;67668;52.294;4.692;2023-02-19T04:30:01;9.18;;;2.00;;
78382;SDS011;67668;52.294;4.692;2023-02-19T04:34:51;9.80;;;2.47;;
78382;SDS011;67668;52.294;4.692;2023-02-19T04:39:42;8.47;;;1.57;;
78382;SDS011;67668;52.294;4.692;2023-02-19T04:44:34;16.98;;;2.88;;
78382;SDS011;67668;52.294;4.692;2023-02-19T04:49:24;10.03;;;2.10;;
78382;SDS011;67668;52.294;4.692;2023-02-19T04:54:16;8.07;;;2.13;;
78382;SDS011;67668;52.294;4.692;2023-02-19T04:56:41;10.73;;;2.05;;
78382;SDS011;67668;52.294;4.692;2023-02-19T05:01:32;7.33;;;1.77;;
78382;SDS011;67668;52.294;4.692;2023-02-19T05:06:23;13.43;;;2.27;;
78382;SDS011;67668;52.294;4.692;2023-02-19T05:11:13;13.27;;;3.27;;
78382;SDS011;67668;52.294;4.692;2023-02-19T05:16:12;10.50;;;2.03;;
78382;SDS011;67668;52.294;4.692;2023-02-19T05:18:41;7.85;;;2.22;;
78382;SDS011;67668;52.294;4.692;2023-02-19T05:21:07;14.07;;;3.50;;
78382;SDS011;67668;52.294;4.692;2023-02-19T05:23:33;10.82;;;2.65;;
78382;SDS011;67668;52.294;4.692;2023-02-19T05:26:03;10.75;;;2.83;;
78382;SDS011;67668;52.294;4.692;2023-02-19T05:28:32;8.55;;;2.53;;
78382;SDS011;67668;52.294;4.692;2023-02-19T05:31:02;14.73;;;2.90;;
78382;SDS011;67668;52.294;4.692;2023-02-19T05:33:29;12.75;;;2.95;;
78382;SDS011;67668;52.294;4.692;2023-02-19T05:38:20;9.37;;;2.83;;
78382;SDS011;67668;52.294;4.692;2023-02-19T05:40:46;9.27;;;2.83;;
78382;SDS011;67668;52.294;4.692;2023-02-19T05:43:12;9.20;;;2.85;;
78382;SDS011;67668;52.294;4.692;2023-02-19T05:45:38;12.63;;;2.95;;
78382;SDS011;67668;52.294;4.692;2023-02-19T05:50:32;12.80;;;2.88;;
78382;SDS011;67668;52.294;4.692;2023-02-19T05:53:00;8.23;;;2.60;;
78382;SDS011;67668;52.294;4.692;2023-02-19T05:55:27;10.10;;;2.70;;
78382;SDS011;67668;52.294;4.692;2023-02-19T05:57:53;12.20;;;3.00;;
78382;SDS011;67668;52.294;4.692;2023-02-19T06:00:19;8.68;;;2.67;;
78382;SDS011;67668;52.294;4.692;2023-02-19T06:02:45;15.82;;;3.83;;
78382;SDS011;67668;52.294;4.692;2023-02-19T06:05:11;11.30;;;2.60;;
78382;SDS011;67668;52.294;4.692;2023-02-19T06:07:37;14.65;;;3.35;;
78382;SDS011;67668;52.294;4.692;2023-02-19T06:10:09;12.75;;;3.00;;
78382;SDS011;67668;52.294;4.692;2023-02-19T06:12:36;12.20;;;2.47;;
78382;SDS011;67668;52.294;4.692;2023-02-19T06:15:03;12.52;;;2.95;;
78382;SDS011;67668;52.294;4.692;2023-02-19T06:17:32;12.13;;;2.85;;
78382;SDS011;67668;52.294;4.692;2023-02-19T06:19:58;11.32;;;3.55;;
78382;SDS011;67668;52.294;4.692;2023-02-19T06:22:23;14.20;;;2.42;;
78382;SDS011;67668;52.294;4.692;2023-02-19T06:24:49;12.73;;;3.22;;
78382;SDS011;67668;52.294;4.692;2023-02-19T06:27:14;9.63;;;2.30;;
78382;SDS011;67668;52.294;4.692;2023-02-19T06:29:40;10.60;;;2.95;;
78382;SDS011;67668;52.294;4.692;2023-02-19T06:32:05;13.37;;;3.33;;
78382;SDS011;67668;52.294;4.692;2023-02-19T06:34:31;12.25;;;3.45;;
78382;SDS011;67668;52.294;4.692;2023-02-19T06:36:57;9.57;;;2.97;;
78382;SDS011;67668;52.294;4.692;2023-02-19T06:39:23;11.60;;;2.97;;
78382;SDS011;67668;52.294;4.692;2023-02-19T06:44:14;11.75;;;2.65;;
78382;SDS011;67668;52.294;4.692;2023-02-19T06:46:40;11.48;;;2.92;;
78382;SDS011;67668;52.294;4.692;2023-02-19T06:49:06;11.02;;;3.08;;
78382;SDS011;67668;52.294;4.692;2023-02-19T06:51:32;11.82;;;3.15;;
78382;SDS011;67668;52.294;4.692;2023-02-19T06:53:58;12.00;;;3.15;;
78382;SDS011;67668;52.294;4.692;2023-02-19T06:58:54;18.80;;;3.38;;
78382;SDS011;67668;52.294;4.692;2023-02-19T07:01:21;6.28;;;2.65;;
78382;SDS011;67668;52.294;4.692;2023-02-19T07:03:47;14.55;;;3.25;;
78382;SDS011;67668;52.294;4.692;2023-02-19T07:06:13;13.80;;;3.42;;
78382;SDS011;67668;52.294;4.692;2023-02-19T07:08:38;16.60;;;3.55;;
78382;SDS011;67668;52.294;4.692;2023-02-19T07:11:03;14.07;;;4.00;;
78382;SDS011;67668;52.294;4.692;2023-02-19T07:13:29;14.05;;;5.00;;
78382;SDS011;67668;52.294;4.692;2023-02-19T07:16:01;7.72;;;3.67;;
78382;SDS011;67668;52.294;4.692;2023-02-19T07:18:30;14.30;;;3.70;;
78382;SDS011;67668;52.294;4.692;2023-02-19T07:21:05;12.52;;;3.15;;
78382;SDS011;67668;52.294;4.692;2023-02-19T07:23:33;16.63;;;3.67;;
78382;SDS011;67668;52.294;4.692;2023-02-19T07:28:24;12.85;;;4.07;;
78382;SDS011;67668;52.294;4.692;2023-02-19T07:30:50;17.35;;;4.30;;
78382;SDS011;67668;52.294;4.692;2023-02-19T07:33:16;11.93;;;3.45;;
78382;SDS011;67668;52.294;4.692;2023-02-19T07:35:47;18.75;;;4.15;;
78382;SDS011;67668;52.294;4.692;2023-02-19T07:40:50;13.13;;;3.40;;
78382;SDS011;67668;52.294;4.692;2023-02-19T07:43:16;7.93;;;3.30;;
78382;SDS011;67668;52.294;4.692;2023-02-19T07:45:42;10.00;;;3.13;;
78382;SDS011;67668;52.294;4.692;2023-02-19T07:48:07;11.83;;;3.40;;
78382;SDS011;67668;52.294;4.692;2023-02-19T07:50:32;11.48;;;2.95;;
78382;SDS011;67668;52.294;4.692;2023-02-19T07:52:58;15.20;;;2.47;;
78382;SDS011;67668;52.294;4.692;2023-02-19T07:55:23;11.38;;;3.33;;
78382;SDS011;67668;52.294;4.692;2023-02-19T07:57:50;21.10;;;3.83;;
78382;SDS011;67668;52.294;4.692;2023-02-19T08:00:15;12.82;;;2.92;;
78382;SDS011;67668;52.294;4.692;2023-02-19T08:02:41;10.75;;;2.80;;
78382;SDS011;67668;52.294;4.692;2023-02-19T08:05:25;14.52;;;3.45;;
78382;SDS011;67668;52.294;4.692;2023-02-19T08:07:54;9.43;;;2.78;;
78382;SDS011;67668;52.294;4.692;2023-02-19T08:10:27;9.63;;;2.35;;
78382;SDS011;67668;52.294;4.692;2023-02-19T08:15:50;13.60;;;2.35;;
78382;SDS011;67668;52.294;4.692;2023-02-19T08:18:18;12.35;;;2.65;;
78382;SDS011;67668;52.294;4.692;2023-02-19T08:20:48;14.15;;;3.08;;
78382;SDS011;67668;52.294;4.692;2023-02-19T08:23:14;16.02;;;2.80;;
78382;SDS011;67668;52.294;4.692;2023-02-19T08:25:39;13.57;;;2.67;;
78382;SDS011;67668;52.294;4.692;2023-02-19T08:28:06;8.38;;;2.50;;
78382;SDS011;67668;52.294;4.692;2023-02-19T08:30:33;8.98;;;2.58;;
78382;SDS011;67668;52.294;4.692;2023-02-19T08:32:59;13.65;;;2.90;;
78382;SDS011;67668;52.294;4.692;2023-02-19T08:35:25;17.38;;;3.17;;
78382;SDS011;67668;52.294;4.692;2023-02-19T08:37:55;11.27;;;2.72;;
78382;SDS011;67668;52.294;4.692;2023-02-19T08:40:22;18.02;;;3.30;;
78382;SDS011;67668;52.294;4.692;2023-02-19T08:42:48;13.10;;;3.45;;
78382;SDS011;67668;52.294;4.692;2023-02-19T08:45:14;10.52;;;2.42;;
78382;SDS011;67668;52.294;4.692;2023-02-19T08:47:39;19.13;;;3.70;;
78382;SDS011;67668;52.294;4.692;2023-02-19T08:50:05;14.57;;;3.20;;
78382;SDS011;67668;52.294;4.692;2023-02-19T08:52:31;17.27;;;4.00;;
78382;SDS011;67668;52.294;4.692;2023-02-19T08:54:57;11.68;;;3.42;;
78382;SDS011;67668;52.294;4.692;2023-02-19T08:57:23;14.30;;;2.83;;
78382;SDS011;67668;52.294;4.692;2023-02-19T08:59:49;17.02;;;3.47;;
78382;SDS011;67668;52.294;4.692;2023-02-19T09:02:14;14.90;;;3.88;;
78382;SDS011;67668;52.294;4.692;2023-02-19T09:07:05;20.20;;;3.40;;
78382;SDS011;67668;52.294;4.692;2023-02-19T09:09:35;14.77;;;3.33;;
78382;SDS011;67668;52.294;4.692;2023-02-19T09:12:03;12.68;;;3.45;;
78382;SDS011;67668;52.294;4.692;2023-02-19T09:14:32;13.60;;;3.83;;
78382;SDS011;67668;52.294;4.692;2023-02-19T09:16:58;17.08;;;3.22;;
78382;SDS011;67668;52.294;4.692;2023-02-19T09:19:25;15.45;;;3.50;;
78382;SDS011;67668;52.294;4.692;2023-02-19T09:21:51;9.57;;;3.60;;
78382;SDS011;67668;52.294;4.692;2023-02-19T09:24:16;16.10;;;3.08;;
78382;SDS011;67668;52.294;4.692;2023-02-19T09:26:42;14.55;;;3.40;;
78382;SDS011;67668;52.294;4.692;2023-02-19T09:31:32;10.83;;;3.03;;
78382;SDS011;67668;52.294;4.692;2023-02-19T09:33:59;13.43;;;4.03;;
78382;SDS011;67668;52.294;4.692;2023-02-19T09:38:50;12.37;;;3.77;;
78382;SDS011;67668;52.294;4.692;2023-02-19T09:43:56;11.65;;;2.95;;
78382;SDS011;67668;52.294;4.692;2023-02-19T09:46:27;12.38;;;3.10;;
78382;SDS011;67668;52.294;4.692;2023-02-19T09:49:06;15.02;;;3.30;;
78382;SDS011;67668;52.294;4.692;2023-02-19T09:51:39;13.50;;;3.47;;
78382;SDS011;67668;52.294;4.692;2023-02-19T09:54:13;8.90;;;3.70;;
78382;SDS011;67668;52.294;4.692;2023-02-19T09:56:45;6.63;;;2.78;;
78382;SDS011;67668;52.294;4.692;2023-02-19T10:01:42;10.23;;;2.75;;
78382;SDS011;67668;52.294;4.692;2023-02-19T10:04:08;10.43;;;2.50;;
78382;SDS011;67668;52.294;4.692;2023-02-19T10:09:20;9.10;;;2.15;;
78382;SDS011;67668;52.294;4.692;2023-02-19T10:11:50;7.57;;;2.28;;
78382;SDS011;67668;52.294;4.692;2023-02-19T10:14:18;4.55;;;1.92;;
78382;SDS011;67668;52.294;4.692;2023-02-19T10:16:46;4.57;;;1.85;;
78382;SDS011;67668;52.294;4.692;2023-02-19T10:19:13;7.15;;;1.85;;
78382;SDS011;67668;52.294;4.692;2023-02-19T10:21:39;3.50;;;1.85;;
78382;SDS011;67668;52.294;4.692;2023-02-19T10:24:06;8.00;;;1.67;;
78382;SDS011;67668;52.294;4.692;2023-02-19T10:26:34;4.70;;;1.77;;
78382;SDS011;67668;52.294;4.692;2023-02-19T10:31:30;4.90;;;1.60;;
78382;SDS011;67668;52.294;4.692;2023-02-19T10:33:58;5.38;;;1.58;;
78382;SDS011;67668;52.294;4.692;2023-02-19T10:36:32;5.85;;;1.58;;
78382;SDS011;67668;52.294;4.692;2023-02-19T10:38:59;6.68;;;1.58;;
78382;SDS011;67668;52.294;4.692;2023-02-19T10:41:27;4.80;;;2.03;;
78382;SDS011;67668;52.294;4.692;2023-02-19T10:43:54;5.72;;;2.63;;
78382;SDS011;67668;52.294;4.692;2023-02-19T10:46:22;3.13;;;1.75;;
78382;SDS011;67668;52.294;4.692;2023-02-19T10:48:54;4.68;;;2.00;;
78382;SDS011;67668;52.294;4.692;2023-02-19T10:56:53;2.88;;;1.80;;
78382;SDS011;67668;52.294;4.692;2023-02-19T11:02:02;3.70;;;1.60;;
78382;SDS011;67668;52.294;4.692;2023-02-19T11:04:39;5.00;;;1.75;;
78382;SDS011;67668;52.294;4.692;2023-02-19T11:09:42;2.30;;;1.02;;
78382;SDS011;67668;52.294;4.692;2023-02-19T11:12:09;2.97;;;1.60;;
78382;SDS011;67668;52.294;4.692;2023-02-19T11:14:40;2.38;;;1.50;;
78382;SDS011;67668;52.294;4.692;2023-02-19T11:17:26;1.90;;;1.05;;
78382;SDS011;67668;52.294;4.692;2023-02-19T11:19:57;2.63;;;1.15;;
78382;SDS011;67668;52.294;4.692;2023-02-19T11:22:36;2.70;;;1.60;;
78382;SDS011;67668;52.294;4.692;2023-02-19T11:25:05;1.30;;;0.90;;
78382;SDS011;67668;52.294;4.692;2023-02-19T11:27:52;1.95;;;1.05;;
78382;SDS011;67668;52.294;4.692;2023-02-19T11:30:38;2.17;;;1.13;;
78382;SDS011;67668;52.294;4.692;2023-02-19T11:38:48;5.47;;;1.70;;
78382;SDS011;67668;52.294;4.692;2023-02-19T11:44:17;3.08;;;1.45;;
78382;SDS011;67668;52.294;4.692;2023-02-19T11:47:04;2.33;;;1.73;;
78382;SDS011;67668;52.294;4.692;2023-02-19T12:01:19;4.82;;;2.80;;
78382;SDS011;67668;52.294;4.692;2023-02-19T12:06:48;6.95;;;3.42;;
78382;SDS011;67668;52.294;4.692;2023-02-19T12:09:42;7.00;;;4.18;;
78382;SDS011;67668;52.294;4.692;2023-02-19T12:12:19;6.20;;;3.65;;
78382;SDS011;67668;52.294;4.692;2023-02-19T12:32:11;5.20;;;3.13;;
78382;SDS011;67668;52.294;4.692;2023-02-19T12:40:27;2.80;;;1.80;;
78382;SDS011;67668;52.294;4.692;2023-02-19T12:43:13;2.78;;;1.63;;
78382;SDS011;67668;52.294;4.692;2023-02-19T12:48:17;1.70;;;1.13;;
78382;SDS011;67668;52.294;4.692;2023-02-19T12:50:50;2.50;;;1.45;;
78382;SDS011;67668;52.294;4.692;2023-02-19T12:53:27;4.50;;;1.85;;
78382;SDS011;67668;52.294;4.692;2023-02-19T12:55:56;2.85;;;1.25;;
78382;SDS011;67668;52.294;4.692;2023-02-19T12:58:30;2.72;;;1.50;;
78382;SDS011;67668;52.294;4.692;2023-02-19T13:01:02;2.10;;;1.40;;
78382;SDS011;67668;52.294;4.692;2023-02-19T13:03:40;2.60;;;1.67;;
78382;SDS011;67668;52.294;4.692;2023-02-19T13:06:27;3.28;;;1.30;;
78382;SDS011;67668;52.294;4.692;2023-02-19T13:09:06;2.95;;;1.50;;
78382;SDS011;67668;52.294;4.692;2023-02-19T13:16:59;4.88;;;1.80;;
78382;SDS011;67668;52.294;4.692;2023-02-19T13:19:29;4.10;;;2.03;;
78382;SDS011;67668;52.294;4.692;2023-02-19T13:21:58;3.80;;;2.33;;
78382;SDS011;67668;52.294;4.692;2023-02-19T13:24:54;3.80;;;1.73;;
78382;SDS011;67668;52.294;4.692;2023-02-19T13:27:24;4.85;;;2.40;;
78382;SDS011;67668;52.294;4.692;2023-02-19T13:35:29;3.30;;;1.65;;
78382;SDS011;67668;52.294;4.692;2023-02-19T13:38:03;5.88;;;1.85;;
78382;SDS011;67668;52.294;4.692;2023-02-19T13:40:41;5.45;;;2.22;;
78382;SDS011;67668;52.294;4.692;2023-02-19T13:43:26;4.22;;;2.10;;
78382;SDS011;67668;52.294;4.692;2023-02-19T13:46:00;3.63;;;1.83;;
78382;SDS011;67668;52.294;4.692;2023-02-19T13:48:31;5.22;;;1.88;;
78382;SDS011;67668;52.294;4.692;2023-02-19T14:04:56;3.03;;;0.88;;
78382;SDS011;67668;52.294;4.692;2023-02-19T14:14:39;2.47;;;0.40;;
78382;SDS011;67668;52.294;4.692;2023-02-19T14:31:20;2.15;;;0.10;;
78382;SDS011;67668;52.294;4.692;2023-02-19T14:34:00;0.60;;;0.20;;
78382;SDS011;67668;52.294;4.692;2023-02-19T14:36:32;1.95;;;0.40;;
78382;SDS011;67668;52.294;4.692;2023-02-19T14:39:09;1.55;;;0.35;;
78382;SDS011;67668;52.294;4.692;2023-02-19T14:41:39;0.85;;;0.20;;
78382;SDS011;67668;52.294;4.692;2023-02-19T14:44:19;1.58;;;0.10;;
78382;SDS011;67668;52.294;4.692;2023-02-19T14:51:42;1.07;;;0.13;;
78382;SDS011;67668;52.294;4.692;2023-02-19T14:54:36;0.60;;;0.30;;
78382;SDS011;67668;52.294;4.692;2023-02-19T14:57:03;0.63;;;0.17;;
78382;SDS011;67668;52.294;4.692;2023-02-19T14:59:34;0.40;;;0.10;;
78382;SDS011;67668;52.294;4.692;2023-02-19T15:02:00;0.40;;;0.10;;
78382;SDS011;67668;52.294;4.692;2023-02-19T15:04:28;0.20;;;0.20;;
78382;SDS011;67668;52.294;4.692;2023-02-19T15:07:00;3.08;;;0.30;;
78382;SDS011;67668;52.294;4.692;2023-02-19T15:09:32;0.40;;;0.10;;
78382;SDS011;67668;52.294;4.692;2023-02-19T15:12:03;2.05;;;0.10;;
78382;SDS011;67668;52.294;4.692;2023-02-19T15:14:29;0.40;;;0.20;;
78382;SDS011;67668;52.294;4.692;2023-02-19T15:17:00;2.42;;;0.17;;
78382;SDS011;67668;52.294;4.692;2023-02-19T15:19:28;0.68;;;0.13;;
78382;SDS011;67668;52.294;4.692;2023-02-19T15:21:58;1.83;;;0.22;;
78382;SDS011;67668;52.294;4.692;2023-02-19T15:24:24;1.02;;;0.30;;
78382;SDS011;67668;52.294;4.692;2023-02-19T15:26:50;3.60;;;0.87;;
78382;SDS011;67668;52.294;4.692;2023-02-19T15:29:20;1.38;;;0.20;;
78382;SDS011;67668;52.294;4.692;2023-02-19T15:31:48;2.30;;;0.40;;
78382;SDS011;67668;52.294;4.692;2023-02-19T15:34:19;0.98;;;0.20;;
78382;SDS011;67668;52.294;4.692;2023-02-19T15:36:47;1.65;;;0.40;;
78382;SDS011;67668;52.294;4.692;2023-02-19T15:39:17;1.15;;;0.30;;
78382;SDS011;67668;52.294;4.692;2023-02-19T15:41:49;1.63;;;0.20;;
78382;SDS011;67668;52.294;4.692;2023-02-19T15:46:56;1.92;;;0.20;;
78382;SDS011;67668;52.294;4.692;2023-02-19T15:49:25;1.67;;;0.20;;
78382;SDS011;67668;52.294;4.692;2023-02-19T15:52:04;3.10;;;0.20;;
78382;SDS011;67668;52.294;4.692;2023-02-19T15:54:46;1.25;;;0.20;;
78382;SDS011;67668;52.294;4.692;2023-02-19T15:57:24;2.97;;;0.40;;
78382;SDS011;67668;52.294;4.692;2023-02-19T15:59:58;0.80;;;0.20;;
78382;SDS011;67668;52.294;4.692;2023-02-19T16:02:31;0.85;;;0.30;;
78382;SDS011;67668;52.294;4.692;2023-02-19T16:04:57;1.80;;;0.30;;
78382;SDS011;67668;52.294;4.692;2023-02-19T16:07:27;1.10;;;0.30;;
78382;SDS011;67668;52.294;4.692;2023-02-19T16:10:30;1.13;;;0.57;;
78382;SDS011;67668;52.294;4.692;2023-02-19T16:12:56;1.65;;;0.25;;
78382;SDS011;67668;52.294;4.692;2023-02-19T16:15:26;3.60;;;0.35;;
78382;SDS011;67668;52.294;4.692;2023-02-19T16:17:52;1.25;;;0.20;;
78382;SDS011;67668;52.294;4.692;2023-02-19T16:22:58;1.02;;;0.20;;
78382;SDS011;67668;52.294;4.692;2023-02-19T16:25:46;1.63;;;0.30;;
78382;SDS011;67668;52.294;4.692;2023-02-19T16:28:22;3.15;;;0.82;;
78382;SDS011;67668;52.294;4.692;2023-02-19T16:30:59;2.20;;;0.40;;
78382;SDS011;67668;52.294;4.692;2023-02-19T16:41:34;0.82;;;0.30;;
78382;SDS011;67668;52.294;4.692;2023-02-19T16:46:53;0.60;;;0.22;;
78382;SDS011;67668;52.294;4.692;2023-02-19T16:49:21;2.72;;;0.40;;
78382;SDS011;67668;52.294;4.692;2023-02-19T16:51:48;2.45;;;0.55;;
78382;SDS011;67668;52.294;4.692;2023-02-19T16:54:14;1.23;;;0.50;;
78382;SDS011;67668;52.294;4.692;2023-02-19T16:59:05;2.30;;;0.73;;
78382;SDS011;67668;52.294;4.692;2023-02-19T17:01:32;2.30;;;0.52;;
78382;SDS011;67668;52.294;4.692;2023-02-19T17:03:59;2.15;;;0.70;;
78382;SDS011;67668;52.294;4.692;2023-02-19T17:06:29;0.90;;;0.35;;
78382;SDS011;67668;52.294;4.692;2023-02-19T17:08:57;1.45;;;0.30;;
78382;SDS011;67668;52.294;4.692;2023-02-19T17:13:48;3.77;;;0.70;;
78382;SDS011;67668;52.294;4.692;2023-02-19T17:18:43;0.70;;;0.30;;
78382;SDS011;67668;52.294;4.692;2023-02-19T17:23:37;1.92;;;0.40;;
78382;SDS011;67668;52.294;4.692;2023-02-19T17:28:28;2.97;;;0.30;;
78382;SDS011;67668;52.294;4.692;2023-02-19T17:33:18;1.17;;;0.30;;
78382;SDS011;67668;52.294;4.692;2023-02-19T17:38:12;1.35;;;0.47;;
78382;SDS011;67668;52.294;4.692;2023-02-19T17:40:38;1.08;;;0.35;;
78382;SDS011;67668;52.294;4.692;2023-02-19T17:43:04;1.73;;;0.20;;
78382;SDS011;67668;52.294;4.692;2023-02-19T17:47:55;0.67;;;0.30;;
78382;SDS011;67668;52.294;4.692;2023-02-19T17:50:22;1.55;;;0.20;;
78382;SDS011;67668;52.294;4.692;2023-02-19T17:52:49;2.55;;;0.30;;
78382;SDS011;67668;52.294;4.692;2023-02-19T17:57:51;2.42;;;0.32;;
78382;SDS011;67668;52.294;4.692;2023-02-19T18:00:27;1.63;;;0.30;;
78382;SDS011;67668;52.294;4.692;2023-02-19T18:02:53;1.13;;;0.22;;
78382;SDS011;67668;52.294;4.692;2023-02-19T18:07:45;0.57;;;0.10;;
78382;SDS011;67668;52.294;4.692;2023-02-19T18:10:12;0.85;;;0.13;;
78382;SDS011;67668;52.294;4.692;2023-02-19T18:12:40;0.20;;;0.10;;
78382;SDS011;67668;52.294;4.692;2023-02-19T18:15:06;1.80;;;0.40;;
78382;SDS011;67668;52.294;4.692;2023-02-19T18:17:33;1.00;;;0.30;;
78382;SDS011;67668;52.294;4.692;2023-02-19T18:19:59;1.63;;;0.40;;
78382;SDS011;67668;52.294;4.692;2023-02-19T18:24:51;1.13;;;0.57;;
78382;SDS011;67668;52.294;4.692;2023-02-19T18:27:18;0.88;;;0.40;;
78382;SDS011;67668;52.294;4.692;2023-02-19T18:29:50;2.05;;;0.50;;
78382;SDS011;67668;52.294;4.692;2023-02-19T18:32:21;2.28;;;0.50;;
78382;SDS011;67668;52.294;4.692;2023-02-19T18:34:48;1.33;;;0.63;;
78382;SDS011;67668;52.294;4.692;2023-02-19T18:37:14;2.78;;;0.60;;
78382;SDS011;67668;52.294;4.692;2023-02-19T18:42:07;2.40;;;0.40;;
78382;SDS011;67668;52.294;4.692;2023-02-19T18:46:58;2.00;;;0.50;;
78382;SDS011;67668;52.294;4.692;2023-02-19T18:51:49;4.13;;;0.67;;
78382;SDS011;67668;52.294;4.692;2023-02-19T18:56:43;3.70;;;1.73;;
78382;SDS011;67668;52.294;4.692;2023-02-19T18:59:10;2.15;;;0.88;;
78382;SDS011;67668;52.294;4.692;2023-02-19T19:01:36;1.42;;;0.88;;
78382;SDS011;67668;52.294;4.692;2023-02-19T19:06:27;2.72;;;0.60;;
78382;SDS011;67668;52.294;4.692;2023-02-19T19:11:18;3.57;;;1.83;;
78382;SDS011;67668;52.294;4.692;2023-02-19T19:16:12;3.33;;;0.93;;
78382;SDS011;67668;52.294;4.692;2023-02-19T19:18:38;1.25;;;0.63;;
78382;SDS011;67668;52.294;4.692;2023-02-19T19:23:29;3.13;;;0.90;;
78382;SDS011;67668;52.294;4.692;2023-02-19T19:28:20;1.30;;;0.50;;
78382;SDS011;67668;52.294;4.692;2023-02-19T19:33:11;1.30;;;0.60;;
78382;SDS011;67668;52.294;4.692;2023-02-19T19:35:36;1.70;;;0.70;;
78382;SDS011;67668;52.294;4.692;2023-02-19T19:38:02;3.08;;;0.80;;
78382;SDS011;67668;52.294;4.692;2023-02-19T19:42:53;3.17;;;0.80;;
78382;SDS011;67668;52.294;4.692;2023-02-19T19:47:44;2.25;;;0.75;;
78382;SDS011;67668;52.294;4.692;2023-02-19T19:50:09;1.80;;;0.95;;
78382;SDS011;67668;52.294;4.692;2023-02-19T19:52:37;4.60;;;0.50;;
78382;SDS011;67668;52.294;4.692;2023-02-19T19:57:28;1.42;;;0.90;;